Greeneville, Tennessee
Current Conditions -  °F | °C
As of 4:35 AM on Friday 28 Nov 2014 (Local Time) from KMOR Reporting Station
Broken Clouds Broken Clouds  
Wind Chill: 23°   Ceiling: 3400
Heat Index: 28°   Visibility: 10mi
Dew Point: 21°   Wind: 5mph
Humidity: 74%   Direction: 360°N
Pressure: 30.35"   Gusts: NA
Location:  36.16°N, 82.83°W
Report Text: KMOR 280935Z AUTO 36004KT 10SM BKN034 M02/M06 A3035 RMK
Loading
Personal Weather Stations






























Interactive Weather Map New forecast layout! Learn more

10-Day Weather Forecast

Advertisements
Track Severe Weather on mobile